Time;durP1;ratioP1;P1;durP2;ratioP2;P2;SDS_P1;SDS_P2;PMS_P1;PMS_P2;Temp;Humidity;BMP_temperature;BMP_pressure;BME280_temperature;BME280_humidity;BME280_pressure;Samples;Min_cycle;Max_cycle;Signal;HPM_P1;HPM_P2
2022/03/08 00:00:21;;;;;;;24.97;21.73;;;-2.40;99.10;;;-1.73;64.06;98502.47;5204219;28;20665;-58
2022/03/08 00:02:55;;;;;;;25.67;21.13;;;-2.50;97.90;;;-1.73;64.16;98507.47;5204447;28;20223;-59
2022/03/08 00:05:28;;;;;;;21.50;19.40;;;-2.40;98.30;;;-1.72;64.59;98499.22;5204986;28;20205;-59
2022/03/08 00:08:02;;;;;;;22.17;19.17;;;-2.50;98.40;;;-1.69;63.72;98492.97;5204676;28;20229;-60
2022/03/08 00:10:35;;;;;;;21.87;19.57;;;-2.40;98.40;;;-1.67;63.71;98503.16;5207057;28;20197;-58
2022/03/08 00:13:09;;;;;;;24.37;20.13;;;-2.40;98.30;;;-1.64;64.56;98501.00;5204370;28;20205;-59
2022/03/08 00:15:43;;;;;;;23.97;20.67;;;-2.40;98.70;;;-1.84;63.35;98502.13;5205228;28;20203;-59
2022/03/08 00:18:17;;;;;;;21.63;19.43;;;-2.50;98.10;;;-1.82;64.21;98508.19;5205742;28;20692;-59
2022/03/08 00:20:50;;;;;;;22.27;19.43;;;-2.60;98.40;;;-1.79;64.20;98506.78;5199131;28;20209;-58
2022/03/08 00:23:23;;;;;;;23.47;19.57;;;-2.50;99.20;;;-1.79;64.25;98504.28;5202498;28;20197;-59
2022/03/08 00:25:59;;;;;;;23.80;21.30;;;-2.60;98.90;;;-1.84;64.39;98509.63;5199380;28;20197;-59
2022/03/08 00:28:34;;;;;;;25.90;20.93;;;-2.60;99.10;;;-1.82;64.69;98510.72;5204395;28;20272;-60
2022/03/08 00:31:08;;;;;;;24.23;20.17;;;-2.60;99.00;;;-1.88;64.79;98499.09;5204708;28;20576;-59
2022/03/08 00:33:42;;;;;;;23.03;19.20;;;-2.70;98.70;;;-1.95;64.81;98502.50;5200281;28;20199;-60
2022/03/08 00:36:16;;;;;;;23.50;20.23;;;-2.70;98.80;;;-2.05;64.47;98499.66;5199428;28;20201;-59
2022/03/08 00:38:49;;;;;;;23.23;20.37;;;-2.80;99.10;;;-2.06;64.98;98506.28;5199190;28;20222;-60
2022/03/08 00:41:22;;;;;;;20.47;18.27;;;-2.80;98.70;;;-2.11;64.01;98504.84;5203366;28;20213;-60
2022/03/08 00:43:55;;;;;;;23.60;17.93;;;-2.90;98.50;;;-2.09;64.98;98505.94;5207277;28;20203;-59
2022/03/08 00:46:30;;;;;;;21.97;18.80;;;-2.90;99.10;;;-2.01;65.49;98493.38;5204235;28;20639;-59
2022/03/08 00:49:03;;;;;;;22.93;20.40;;;-2.80;99.40;;;-2.02;65.39;98489.13;5204261;28;20317;-59
2022/03/08 00:51:36;;;;;;;20.90;18.50;;;-2.80;99.70;;;-2.08;64.85;98489.31;5205098;28;20204;-58
2022/03/08 00:54:10;;;;;;;20.63;18.43;;;-2.80;99.30;;;-2.10;65.19;98493.22;5205116;28;20208;-58
2022/03/08 00:56:43;;;;;;;20.93;18.23;;;-2.90;99.30;;;-2.15;66.00;98487.69;5205251;28;20202;-58
2022/03/08 00:59:16;;;;;;;19.07;16.90;;;-2.90;99.40;;;-2.17;65.56;98481.63;5205524;28;20227;-58
2022/03/08 01:01:51;;;;;;;21.07;17.87;;;-2.90;99.00;;;-2.24;65.46;98475.72;5187390;28;20653;-56
2022/03/08 01:04:24;;;;;;;19.90;17.60;;;-3.00;99.10;;;-2.24;65.87;98481.63;5205920;28;20246;-59
2022/03/08 01:06:57;;;;;;;20.67;18.17;;;-2.90;99.90;;;-2.21;66.19;98481.06;5209291;28;20205;-59
2022/03/08 01:09:30;;;;;;;21.93;18.57;;;-2.90;99.80;;;-2.20;66.17;98480.34;5208902;28;20225;-58
2022/03/08 01:12:05;;;;;;;22.03;18.37;;;-2.90;99.90;;;-2.29;66.14;98488.63;5209227;28;20190;-57
2022/03/08 01:14:38;;;;;;;20.90;18.70;;;-2.90;99.50;;;-2.27;65.49;98486.25;5211550;28;20197;-58
2022/03/08 01:17:12;;;;;;;20.47;17.83;;;-2.90;99.70;;;-2.37;66.67;98489.31;5208185;28;20232;-58
2022/03/08 01:19:46;;;;;;;22.23;19.47;;;-3.00;99.70;;;-2.34;65.96;98484.69;5209281;28;20229;-58
2022/03/08 01:22:19;;;;;;;24.03;20.27;;;-3.10;99.70;;;-2.34;66.71;98487.19;5194838;28;20224;-58
2022/03/08 01:24:53;;;;;;;24.77;19.97;;;-3.10;99.90;;;-2.36;66.29;98485.22;5208951;28;20693;-59
2022/03/08 01:27:26;;;;;;;23.47;19.90;;;-3.10;99.60;;;-2.43;65.53;98483.63;5208920;28;20208;-57
2022/03/08 01:29:59;;;;;;;22.53;19.67;;;-3.20;99.60;;;-2.39;67.68;98474.84;5208850;28;20205;-59
2022/03/08 01:32:33;;;;;;;21.53;18.07;;;-3.00;99.90;;;-2.38;67.15;98479.13;5208905;28;20198;-59
2022/03/08 01:35:07;;;;;;;19.63;16.90;;;-3.10;99.90;;;-2.39;67.01;98474.84;5208927;28;20200;-59
2022/03/08 01:37:41;;;;;;;21.20;17.53;;;-3.10;99.90;;;-2.43;66.60;98473.59;5207841;28;20216;-58
2022/03/08 01:40:15;;;;;;;19.23;16.13;;;-3.10;99.70;;;-2.43;65.78;98471.09;5203699;28;20205;-59
2022/03/08 01:42:51;;;;;;;21.10;18.53;;;-3.20;99.40;;;-2.40;66.16;98471.47;5207824;28;20217;-55
2022/03/08 01:45:26;;;;;;;18.67;16.77;;;-3.10;99.90;;;-2.36;66.94;98466.06;5207484;28;20204;-59
2022/03/08 01:48:01;;;;;;;19.20;16.77;;;-3.10;99.90;;;-2.45;66.05;98455.00;5207220;28;20218;-58
2022/03/08 01:50:34;;;;;;;18.83;16.80;;;-3.20;99.70;;;-2.51;66.02;98457.69;5208252;28;20201;-59
2022/03/08 01:53:08;;;;;;;20.03;17.97;;;-3.20;99.90;;;-2.54;67.23;98446.44;5208784;28;20220;-59
2022/03/08 01:55:41;;;;;;;18.80;16.40;;;-3.20;99.90;;;-2.52;66.48;98439.97;5208235;28;20205;-58
2022/03/08 01:58:14;;;;;;;19.23;17.17;;;-3.20;99.90;;;-2.63;66.47;98437.84;5208551;28;20229;-59
2022/03/08 02:00:47;;;;;;;18.90;16.47;;;-3.30;99.50;;;-2.61;65.90;98429.78;5208175;28;20204;-59
2022/03/08 02:03:22;;;;;;;20.37;18.10;;;-3.30;99.60;;;-2.58;66.82;98430.16;5207874;28;20248;-58
2022/03/08 02:05:55;;;;;;;20.37;18.17;;;-3.20;99.90;;;-2.55;66.33;98424.63;5207256;28;20229;-59
2022/03/08 02:08:29;;;;;;;22.60;18.73;;;-3.30;99.80;;;-2.59;66.53;98427.50;5206907;28;20226;-59
2022/03/08 02:11:02;;;;;;;20.27;17.67;;;-3.30;99.70;;;-2.54;66.14;98436.44;5206298;28;20209;-58
2022/03/08 02:13:35;;;;;;;18.57;16.63;;;-3.30;99.70;;;-2.56;67.06;98426.22;5204507;28;20207;-59
2022/03/08 02:16:08;;;;;;;18.67;16.57;;;-3.30;99.70;;;-2.59;65.47;98422.50;5206829;28;20367;-58
2022/03/08 02:18:43;;;;;;;16.83;14.70;;;-3.30;99.00;;;-2.57;65.10;98429.47;5209051;28;20751;-59
2022/03/08 02:21:17;;;;;;;19.40;16.77;;;-3.20;99.20;;;-2.54;64.82;98428.91;5210176;28;20196;-59
2022/03/08 02:23:50;;;;;;;18.40;16.50;;;-3.20;98.70;;;-2.51;64.84;98434.28;5203913;28;20217;-58
2022/03/08 02:26:23;;;;;;;19.80;17.43;;;-3.20;98.70;;;-2.52;65.10;98432.47;5205930;28;20301;-59
2022/03/08 02:28:57;;;;;;;21.73;17.80;;;-3.20;99.60;;;-2.46;65.44;98432.28;5207524;28;20214;-57
2022/03/08 02:31:30;;;;;;;19.07;17.03;;;-3.20;99.60;;;-2.53;65.37;98423.19;5207387;28;20205;-59
2022/03/08 02:34:04;;;;;;;18.20;15.90;;;-3.30;99.50;;;-2.55;65.33;98424.63;5206602;28;20227;-58
2022/03/08 02:36:40;;;;;;;21.57;17.73;;;-3.30;99.30;;;-2.57;66.25;98419.44;5207445;28;20205;-56
2022/03/08 02:39:14;;;;;;;21.87;17.67;;;-3.30;99.60;;;-2.55;65.92;98417.09;5208059;28;20233;-58
2022/03/08 02:41:47;;;;;;;18.93;16.67;;;-3.20;99.80;;;-2.65;65.32;98419.28;5208098;28;20251;-55
2022/03/08 02:44:20;;;;;;;18.03;16.13;;;-3.40;99.00;;;-2.71;64.63;98414.44;5208669;28;20225;-58
2022/03/08 02:46:53;;;;;;;16.87;14.73;;;-3.40;98.90;;;-2.74;64.67;98415.00;5207646;28;20198;-59
2022/03/08 02:49:26;;;;;;;17.27;14.93;;;-3.50;98.80;;;-2.71;65.00;98414.44;5204487;28;20257;-59
2022/03/08 02:52:01;;;;;;;16.93;15.10;;;-3.40;98.80;;;-2.65;64.51;98414.28;5205250;28;20206;-60
2022/03/08 02:54:34;;;;;;;15.47;13.87;;;-3.30;98.30;;;-2.60;64.01;98408.19;5207823;28;20197;-59
2022/03/08 02:57:07;;;;;;;16.70;14.30;;;-3.20;98.00;;;-2.59;63.09;98423.38;5206023;28;20571;-59
2022/03/08 02:59:40;;;;;;;15.43;13.83;;;-3.20;97.80;;;-2.50;63.56;98406.03;5205427;28;20217;-59
2022/03/08 03:02:13;;;;;;;16.37;14.77;;;-3.10;98.00;;;-2.48;64.25;98407.09;5199261;28;20201;-60
2022/03/08 03:04:46;;;;;;;17.87;16.07;;;-3.10;98.20;;;-2.48;64.35;98413.72;5204811;28;20673;-59
2022/03/08 03:07:24;;;;;;;17.43;15.50;;;-3.10;98.40;;;-2.48;64.51;98413.72;5205095;28;20686;-59
2022/03/08 03:09:57;;;;;;;16.73;15.10;;;-3.10;98.60;;;-2.52;63.90;98408.38;5204864;28;20684;-59
2022/03/08 03:12:30;;;;;;;17.13;15.10;;;-3.20;98.40;;;-2.30;62.58;98404.19;5207339;28;20196;-59
2022/03/08 03:15:06;;;;;;;16.93;15.10;;;-3.10;98.20;;;-2.41;63.37;98394.56;5206512;28;20197;-59
2022/03/08 03:17:39;;;;;;;16.60;14.57;;;-3.10;98.10;;;-2.49;63.48;98390.28;5205606;28;20218;-59
2022/03/08 03:20:14;;;;;;;16.37;14.70;;;-3.10;97.90;;;-2.55;63.39;98393.00;5206249;28;20395;-59
2022/03/08 03:22:50;;;;;;;17.13;14.47;;;-3.30;97.90;;;-2.58;62.86;98387.63;5205632;28;20681;-59
2022/03/08 03:25:23;;;;;;;15.50;14.00;;;-3.30;97.70;;;-2.59;63.39;98385.84;5207097;28;20229;-59
2022/03/08 03:27:56;;;;;;;15.03;13.50;;;-3.20;97.60;;;-2.54;62.80;98384.78;5205074;28;20223;-59
2022/03/08 03:30:29;;;;;;;16.53;14.73;;;-3.20;97.40;;;-2.51;63.02;98384.22;5206754;28;20578;-57
2022/03/08 03:33:03;;;;;;;17.10;14.93;;;-3.10;98.10;;;-2.49;63.27;98387.78;5206461;28;20200;-59
2022/03/08 03:35:36;;;;;;;16.67;14.87;;;-3.10;98.40;;;-2.47;64.26;98386.34;5206665;28;20271;-60
2022/03/08 03:38:11;;;;;;;16.70;14.90;;;-3.10;98.60;;;-2.49;63.04;98392.78;5202599;28;20685;-59
2022/03/08 03:40:44;;;;;;;16.97;15.27;;;-3.20;97.50;;;-2.50;62.80;98384.41;5204989;28;20204;-57
2022/03/08 03:43:17;;;;;;;15.67;14.00;;;-3.10;97.40;;;-2.47;62.28;98386.34;5206174;28;20208;-59
2022/03/08 03:45:50;;;;;;;15.87;14.20;;;-3.10;97.30;;;-2.46;61.77;98380.66;5204198;28;20196;-59
2022/03/08 03:48:23;;;;;;;16.33;14.53;;;-3.10;97.40;;;-2.36;62.33;98380.09;5205678;28;20249;-59
2022/03/08 03:50:56;;;;;;;16.20;14.60;;;-3.10;97.50;;;-2.43;62.08;98383.50;5206001;28;20201;-59
2022/03/08 03:53:30;;;;;;;15.93;14.33;;;-3.10;97.30;;;-2.19;62.66;98380.41;5205541;28;20200;-59
2022/03/08 03:56:04;;;;;;;16.97;15.17;;;-3.00;97.50;;;-2.31;63.51;98374.91;5203375;28;20579;-59
2022/03/08 03:58:37;;;;;;;16.30;14.63;;;-3.00;98.00;;;-2.40;62.68;98373.84;5205395;28;20232;-59
2022/03/08 04:01:10;;;;;;;16.17;14.57;;;-3.00;97.80;;;-2.45;62.81;98374.94;5205033;28;20196;-61
2022/03/08 04:03:43;;;;;;;14.97;13.13;;;-3.10;97.40;;;-2.39;63.06;98370.63;5205749;28;20755;-59
2022/03/08 04:06:16;;;;;;;16.40;14.73;;;-3.00;97.50;;;-2.38;62.05;98372.38;5206002;28;20688;-59
2022/03/08 04:08:51;;;;;;;16.20;14.33;;;-3.00;97.60;;;-2.40;62.68;98373.84;5206244;28;20228;-58
2022/03/08 04:11:24;;;;;;;15.27;13.67;;;-3.10;97.60;;;-2.45;63.43;98387.44;5206148;28;20574;-59
2022/03/08 04:13:57;;;;;;;16.03;14.33;;;-3.10;97.40;;;-2.45;62.67;98379.94;5205399;28;20208;-58
2022/03/08 04:16:30;;;;;;;17.80;14.97;;;-3.10;97.30;;;-2.45;62.49;98384.06;5205363;28;20197;-59
2022/03/08 04:19:03;;;;;;;16.33;14.73;;;-3.10;97.30;;;-2.44;62.30;98388.31;5205919;28;20282;-59
2022/03/08 04:21:36;;;;;;;16.67;14.77;;;-3.10;97.50;;;-2.48;63.61;98384.59;5205778;28;20216;-59
2022/03/08 04:24:11;;;;;;;17.13;15.33;;;-3.10;98.00;;;-2.30;62.17;98381.66;5205577;28;20220;-59
2022/03/08 04:26:44;;;;;;;16.50;14.87;;;-3.10;97.30;;;-2.35;61.81;98382.75;5206373;28;20192;-59
2022/03/08 04:29:17;;;;;;;17.53;14.40;;;-3.00;97.30;;;-2.35;61.92;98391.88;5205635;28;20708;-59
2022/03/08 04:31:50;;;;;;;15.83;14.13;;;-3.00;97.30;;;-2.37;61.69;98385.81;5206155;28;20556;-59
2022/03/08 04:34:24;;;;;;;17.47;15.67;;;-3.10;97.30;;;-2.44;63.32;98389.22;5205471;28;20248;-58
2022/03/08 04:36:57;;;;;;;16.83;15.23;;;-3.10;98.10;;;-2.43;62.52;98392.59;5204663;28;20198;-58
2022/03/08 04:39:31;;;;;;;15.83;14.23;;;-3.10;97.90;;;-2.46;62.78;98384.75;5203282;28;20682;-59
2022/03/08 04:42:05;;;;;;;18.53;15.27;;;-3.10;97.80;;;-2.45;63.16;98379.94;5205378;28;20591;-57
2022/03/08 04:44:38;;;;;;;17.80;15.70;;;-3.10;97.80;;;-2.45;62.88;98382.44;5205624;28;20752;-57
2022/03/08 04:47:11;;;;;;;16.70;15.00;;;-3.10;97.60;;;-2.41;63.00;98372.03;5204997;28;20204;-59
2022/03/08 04:49:44;;;;;;;16.73;14.93;;;-3.10;97.40;;;-2.44;62.32;98378.31;5214704;28;20685;-57
2022/03/08 04:52:17;;;;;;;16.97;14.77;;;-3.10;97.40;;;-2.46;62.24;98373.16;5205620;28;20194;-56
2022/03/08 04:54:52;;;;;;;15.47;13.87;;;-3.10;97.20;;;-2.41;61.99;98382.06;5204947;28;20205;-59
2022/03/08 04:57:25;;;;;;;15.20;13.27;;;-3.10;97.20;;;-2.43;61.94;98376.00;5205139;28;20193;-59
2022/03/08 04:59:59;;;;;;;16.10;14.40;;;-3.10;97.30;;;-2.39;62.24;98375.63;5204867;28;20198;-58
2022/03/08 05:02:32;;;;;;;15.30;13.73;;;-3.20;97.60;;;-2.46;61.85;98373.16;5204981;28;20202;-59
2022/03/08 05:05:06;;;;;;;16.00;14.33;;;-3.20;97.40;;;-2.44;62.92;98384.22;5205222;28;20214;-59
2022/03/08 05:07:40;;;;;;;16.67;14.77;;;-3.20;97.50;;;-2.41;62.01;98371.16;5205055;28;20767;-59
2022/03/08 05:10:15;;;;;;;15.33;13.73;;;-3.10;97.50;;;-2.41;62.76;98373.66;5198726;28;20205;-59
2022/03/08 05:12:48;;;;;;;15.63;14.13;;;-3.10;97.60;;;-2.43;62.63;98363.50;5205047;28;20201;-58
2022/03/08 05:15:21;;;;;;;16.03;14.00;;;-3.10;97.70;;;-2.44;62.53;98369.19;5204557;28;20200;-58
2022/03/08 05:17:54;;;;;;;14.43;13.03;;;-3.10;97.60;;;-2.46;62.33;98363.13;5196916;28;20232;-59
2022/03/08 05:20:27;;;;;;;15.30;13.73;;;-3.20;97.40;;;-2.46;62.60;98368.16;5204950;28;20678;-60
2022/03/08 05:23:00;;;;;;;14.87;13.40;;;-3.10;97.50;;;-2.43;62.12;98367.56;5206113;28;20190;-60
2022/03/08 05:25:35;;;;;;;16.63;14.23;;;-3.10;97.40;;;-2.44;62.01;98366.69;5203168;28;20275;-61
2022/03/08 05:28:08;;;;;;;15.17;13.57;;;-3.10;97.20;;;-2.41;61.90;98362.03;5205074;28;20563;-61
2022/03/08 05:30:41;;;;;;;15.17;13.57;;;-3.10;97.30;;;-2.39;62.04;98353.09;5204283;28;20212;-60
2022/03/08 05:33:14;;;;;;;14.90;13.40;;;-3.10;97.40;;;-2.38;61.96;98356.50;5201688;28;20201;-60
2022/03/08 05:35:47;;;;;;;14.77;13.27;;;-3.10;97.60;;;-2.38;62.23;98351.47;5201276;28;20198;-60
2022/03/08 05:38:20;;;;;;;15.67;13.80;;;-3.10;97.70;;;-2.39;62.84;98354.72;5202691;28;20605;-60
2022/03/08 05:40:55;;;;;;;14.53;13.13;;;-3.20;98.00;;;-2.47;62.92;98350.44;5204070;28;20206;-58
2022/03/08 05:43:28;;;;;;;15.03;13.43;;;-3.20;98.20;;;-2.51;63.32;98344.19;5204214;28;20189;-59
2022/03/08 05:46:01;;;;;;;15.20;13.53;;;-3.20;97.80;;;-2.47;62.55;98343.81;5202479;28;20229;-59
2022/03/08 05:48:35;;;;;;;17.17;14.07;;;-3.10;97.70;;;-2.48;62.67;98341.16;5203751;28;20237;-60
2022/03/08 05:51:08;;;;;;;15.23;13.60;;;-3.10;97.60;;;-2.46;63.08;98345.63;5205200;28;20194;-59
2022/03/08 05:53:41;;;;;;;15.40;13.80;;;-3.10;97.50;;;-2.39;62.74;98350.59;5209069;28;20197;-58
2022/03/08 05:56:16;;;;;;;17.10;14.87;;;-3.10;97.70;;;-2.34;63.09;98343.63;5208376;28;20193;-60
2022/03/08 05:58:49;;;;;;;16.70;14.90;;;-3.00;97.80;;;-2.28;62.88;98354.31;5208209;28;20213;-59
2022/03/08 06:01:22;;;;;;;16.50;14.90;;;-2.90;97.80;;;-2.24;63.71;98355.56;5208849;28;20198;-59
2022/03/08 06:03:55;;;;;;;18.73;16.27;;;-2.90;98.00;;;-2.22;64.03;98359.16;5208694;28;20220;-60
2022/03/08 06:06:28;;;;;;;16.80;14.73;;;-2.90;98.40;;;-2.24;64.38;98366.47;5208712;28;20200;-59
2022/03/08 06:09:01;;;;;;;20.13;18.00;;;-3.00;98.50;;;-2.23;64.17;98367.34;5207761;28;20222;-59
2022/03/08 06:11:35;;;;;;;17.83;15.87;;;-3.00;99.30;;;-2.21;64.76;98370.94;5208377;28;20201;-58
2022/03/08 06:14:08;;;;;;;18.20;16.40;;;-2.90;98.80;;;-2.25;64.87;98366.31;5205509;28;20197;-59
2022/03/08 06:16:41;;;;;;;17.53;15.63;;;-3.00;98.90;;;-2.15;63.31;98371.63;5207826;28;20202;-59
2022/03/08 06:19:15;;;;;;;17.07;14.80;;;-2.90;98.30;;;-2.10;63.23;98373.03;5208126;28;20225;-59
2022/03/08 06:21:48;;;;;;;16.67;14.97;;;-2.70;98.10;;;-1.94;62.03;98371.56;5208065;28;20220;-55
2022/03/08 06:24:21;;;;;;;18.50;16.60;;;-2.60;97.40;;;-1.65;61.96;98373.94;5204879;28;20678;-58
2022/03/08 06:26:55;;;;;;;18.50;16.63;;;-2.30;97.00;;;-1.30;59.96;98369.44;5206183;28;20212;-60
2022/03/08 06:29:28;;;;;;;23.33;21.10;;;-2.10;96.60;;;-0.99;60.72;98373.69;5207100;28;20235;-58
2022/03/08 06:32:04;;;;;;;18.90;16.93;;;-1.80;96.60;;;-0.58;60.61;98369.75;5205684;28;20293;-60
2022/03/08 06:34:37;;;;;;;16.80;15.13;;;-1.30;96.60;;;-0.09;56.54;98373.34;5207189;28;20201;-59
2022/03/08 06:37:10;;;;;;;16.80;15.10;;;-0.90;95.10;;;0.12;58.06;98374.75;5206662;28;20201;-57
2022/03/08 06:39:43;;;;;;;16.80;15.10;;;-0.60;94.70;;;0.45;56.98;98368.91;5206402;28;20228;-60
2022/03/08 06:42:18;;;;;;;15.73;14.13;;;-0.40;94.50;;;0.69;55.75;98370.59;5199724;28;20213;-60
2022/03/08 06:44:51;;;;;;;15.40;13.93;;;-0.20;94.00;;;0.78;54.13;98376.56;5203178;28;20205;-60
2022/03/08 06:47:24;;;;;;;15.77;13.70;;;0.00;93.10;;;0.97;53.46;98384.34;5205937;28;20198;-60
2022/03/08 06:49:57;;;;;;;16.27;14.67;;;-0.10;93.00;;;1.53;53.60;98371.56;5205891;28;20237;-60
2022/03/08 06:52:30;;;;;;;14.63;13.10;;;0.20;93.60;;;1.92;52.09;98367.81;5205999;28;20202;-60
2022/03/08 06:55:05;;;;;;;15.90;14.40;;;0.40;92.70;;;2.35;50.48;98372.00;5206262;28;20216;-59
2022/03/08 06:57:39;;;;;;;15.07;13.53;;;0.70;92.50;;;2.56;48.83;98379.09;5207568;28;20235;-60
2022/03/08 07:00:14;;;;;;;15.10;13.60;;;0.90;91.10;;;2.58;48.87;98365.00;5206248;28;20579;-60
2022/03/08 07:02:47;;;;;;;14.63;13.23;;;1.10;91.00;;;2.71;47.38;98360.34;5206341;28;20200;-60
2022/03/08 07:05:20;;;;;;;14.90;13.50;;;1.30;89.50;;;2.79;48.13;98355.16;5206729;28;20769;-60
2022/03/08 07:07:53;;;;;;;14.00;12.70;;;1.50;90.10;;;3.01;47.58;98365.66;5205957;28;20230;-60
2022/03/08 07:10:26;;;;;;;15.97;14.27;;;1.70;90.00;;;3.23;48.56;98361.84;5206168;28;20595;-60
2022/03/08 07:13:01;;;;;;;15.53;14.03;;;2.00;89.10;;;3.41;47.24;98370.25;5205717;28;20248;-60
2022/03/08 07:15:34;;;;;;;15.37;13.87;;;2.10;89.20;;;3.51;46.58;98367.81;5206007;28;20665;-59
2022/03/08 07:18:08;;;;;;;17.93;16.17;;;2.30;88.40;;;3.84;47.53;98361.56;5207516;28;20610;-59
2022/03/08 07:20:41;;;;;;;18.97;16.67;;;2.40;90.30;;;3.94;48.26;98371.75;5207251;28;20225;-59
2022/03/08 07:23:14;;;;;;;17.73;16.07;;;2.50;90.70;;;4.09;48.61;98367.16;5198424;28;20206;-59
2022/03/08 07:25:47;;;;;;;18.70;16.90;;;2.60;90.60;;;4.18;47.98;98372.19;5201902;28;20707;-60
2022/03/08 07:28:21;;;;;;;16.20;14.60;;;2.70;90.40;;;4.21;47.14;98369.94;5206555;28;20225;-59
2022/03/08 07:31:12;;;;;;;15.50;14.03;;;2.90;88.40;;;4.49;45.69;98371.66;5206753;28;20225;-60
2022/03/08 07:33:45;;;;;;;15.10;13.60;;;3.10;87.20;;;4.71;45.71;98368.44;5207002;28;20656;-58
2022/03/08 07:36:18;;;;;;;15.83;14.23;;;3.30;86.80;;;4.80;45.74;98371.78;5206716;28;20202;-58
2022/03/08 07:38:52;;;;;;;15.17;13.60;;;3.50;86.70;;;4.80;44.12;98366.72;5206162;28;20326;-59
2022/03/08 07:41:25;;;;;;;15.07;13.57;;;3.60;84.10;;;4.86;44.14;98371.44;5206485;28;20207;-57
2022/03/08 07:44:01;;;;;;;14.97;13.47;;;3.70;84.60;;;5.00;44.60;98368.44;5206033;28;20562;-59
2022/03/08 07:46:34;;;;;;;14.57;13.30;;;3.80;84.60;;;5.01;44.50;98369.34;5205837;28;20574;-60
2022/03/08 07:49:07;;;;;;;15.27;13.87;;;4.00;84.50;;;5.40;43.56;98371.88;5205649;28;20224;-61
2022/03/08 07:51:53;;;;;;;15.00;13.60;;;4.30;83.40;;;5.65;43.37;98375.72;5201276;28;20200;-61
2022/03/08 07:54:26;;;;;;;15.53;13.93;;;4.50;82.90;;;5.85;42.52;98372.31;5200277;28;20205;-61
2022/03/08 07:56:59;;;;;;;14.53;13.13;;;4.70;82.00;;;5.76;43.60;98370.69;5198720;28;20204;-61
2022/03/08 07:59:34;;;;;;;14.27;12.97;;;4.80;82.50;;;5.84;43.57;98368.03;5200506;28;20219;-61
2022/03/08 08:02:14;;;;;;;14.10;12.80;;;4.90;82.40;;;6.05;43.22;98368.06;5197267;28;20194;-60
2022/03/08 08:04:47;;;;;;;14.07;12.60;;;5.10;82.00;;;6.34;42.06;98372.09;5204511;28;20570;-60
2022/03/08 08:07:20;;;;;;;12.97;11.87;;;5.50;81.10;;;6.45;42.40;98367.13;5205428;28;20236;-60
2022/03/08 08:09:53;;;;;;;13.03;11.83;;;5.60;80.20;;;6.45;41.50;98376.41;5200802;28;20210;-60
2022/03/08 08:12:27;;;;;;;14.30;12.80;;;5.60;79.30;;;6.15;42.14;98385.78;5205256;28;20198;-60
2022/03/08 08:15:02;;;;;;;13.17;11.80;;;5.40;79.90;;;5.98;42.35;98389.50;5202883;28;20677;-60
2022/03/08 08:17:35;;;;;;;11.53;10.43;;;5.20;79.90;;;6.15;41.27;98370.56;5204391;28;20205;-60
2022/03/08 08:20:09;;;;;;;11.00;10.00;;;5.30;79.20;;;6.37;41.67;98382.50;5204320;28;20198;-60
2022/03/08 08:22:43;;;;;;;10.60;9.70;;;5.70;79.10;;;6.36;41.61;98383.28;5204445;28;20208;-60
2022/03/08 08:25:16;;;;;;;10.27;9.27;;;5.70;79.10;;;6.45;39.99;98373.84;5202534;28;20257;-60
2022/03/08 08:27:49;;;;;;;10.13;9.23;;;5.90;76.80;;;6.75;39.83;98378.88;5202394;28;20735;-60
2022/03/08 08:30:24;;;;;;;10.00;9.00;;;6.30;75.90;;;6.59;39.34;98377.50;5203754;28;20565;-60
2022/03/08 08:32:57;;;;;;;9.83;9.03;;;6.10;75.10;;;6.57;40.38;98377.38;5204180;28;20205;-58
2022/03/08 08:35:30;;;;;;;9.77;8.67;;;6.10;75.90;;;6.89;39.66;98373.97;5204015;28;20570;-60
2022/03/08 08:38:05;;;;;;;9.73;8.83;;;6.50;75.60;;;6.53;39.01;98370.28;5204080;28;20226;-60
2022/03/08 08:40:39;;;;;;;9.53;8.73;;;6.20;73.90;;;6.15;39.02;98364.59;5204439;28;20332;-58
2022/03/08 08:43:12;;;;;;;9.60;8.90;;;5.80;73.80;;;6.36;39.12;98370.56;5204220;28;20681;-60
2022/03/08 08:45:51;;;;;;;8.83;8.13;;;6.00;74.20;;;6.41;39.08;98372.72;5200483;28;20232;-60
2022/03/08 08:48:24;;;;;;;9.27;8.37;;;6.00;73.20;;;6.48;37.57;98367.38;5203748;28;20225;-60
2022/03/08 08:50:57;;;;;;;8.83;8.13;;;6.10;71.60;;;6.50;38.24;98362.44;5201882;28;20203;-60
2022/03/08 08:53:31;;;;;;;8.87;8.07;;;6.20;71.80;;;6.64;37.13;98369.50;5198201;28;20229;-60
2022/03/08 08:56:05;;;;;;;8.53;7.73;;;6.30;71.20;;;6.79;37.10;98363.88;5203796;28;20205;-60
2022/03/08 08:58:38;;;;;;;8.57;7.77;;;6.50;71.30;;;6.88;37.38;98364.59;5203560;28;20222;-60
2022/03/08 09:01:12;;;;;;;9.10;8.40;;;6.40;71.20;;;6.67;37.05;98356.16;5203303;28;20220;-60
2022/03/08 09:03:46;;;;;;;9.73;8.83;;;6.40;70.70;;;6.96;36.95;98359.34;5200403;28;20255;-60
2022/03/08 09:06:19;;;;;;;8.73;8.00;;;6.60;70.30;;;7.05;35.51;98369.34;5206161;28;20223;-58
2022/03/08 09:08:52;;;;;;;8.77;7.97;;;6.80;68.70;;;6.62;36.30;98365.94;5206808;28;20224;-59
2022/03/08 09:11:26;;;;;;;8.30;7.60;;;6.30;69.10;;;6.72;37.13;98367.56;5207906;28;20202;-59
2022/03/08 09:13:59;;;;;;;8.40;7.70;;;6.30;71.00;;;6.98;36.75;98362.00;5207983;28;20196;-59
2022/03/08 09:16:34;;;;;;;8.23;7.43;;;6.50;70.50;;;7.19;36.54;98356.06;5204488;28;20649;-58
2022/03/08 09:19:07;;;;;;;8.50;7.80;;;6.70;69.50;;;7.02;35.76;98358.06;5208609;28;20299;-58
2022/03/08 09:21:40;;;;;;;8.57;7.80;;;6.60;68.70;;;7.33;36.33;98349.53;5208416;28;20186;-55
2022/03/08 09:24:13;;;;;;;8.27;7.67;;;6.90;69.10;;;7.56;35.61;98347.88;5210286;28;20645;-59
2022/03/08 09:26:46;;;;;;;8.30;7.57;;;7.30;68.00;;;7.71;34.33;98361.75;5208676;28;20220;-57
2022/03/08 09:29:19;;;;;;;8.70;8.00;;;7.40;66.80;;;7.05;34.91;98353.22;5211941;28;20216;-59
2022/03/08 09:31:54;;;;;;;8.37;7.67;;;6.80;67.10;;;7.05;35.86;98343.94;5214033;28;20566;-59
2022/03/08 09:34:27;;;;;;;8.43;7.63;;;6.70;68.30;;;7.23;34.93;98340.28;5210971;28;20285;-59
2022/03/08 09:37:00;;;;;;;9.10;8.40;;;6.90;66.90;;;7.09;35.08;98338.31;5211540;28;20201;-59
2022/03/08 09:39:34;;;;;;;8.90;7.67;;;6.90;67.30;;;6.79;36.15;98324.09;5210658;28;20224;-60
2022/03/08 09:42:08;;;;;;;8.87;8.07;;;6.50;68.20;;;7.08;36.02;98328.03;5210796;28;20186;-59
2022/03/08 09:44:41;;;;;;;8.40;7.70;;;6.60;68.20;;;7.25;35.42;98324.28;5212031;28;20638;-60
2022/03/08 09:47:16;;;;;;;8.00;7.30;;;6.80;67.70;;;7.15;34.64;98337.91;5210964;28;20238;-59
2022/03/08 09:49:49;;;;;;;7.73;7.03;;;6.80;66.90;;;7.28;34.12;98329.59;5211315;28;20198;-59
2022/03/08 09:52:22;;;;;;;7.83;7.03;;;6.90;66.20;;;7.18;33.95;98331.44;5210548;28;20226;-59
2022/03/08 09:54:55;;;;;;;8.63;7.80;;;6.70;65.50;;;7.08;33.92;98328.94;5210859;28;20219;-59
2022/03/08 09:57:34;;;;;;;7.60;6.90;;;6.70;65.70;;;7.27;34.56;98337.97;5211039;28;20234;-59
2022/03/08 10:00:10;;;;;;;7.90;7.20;;;6.90;65.20;;;7.21;33.91;98336.75;5210409;28;20201;-59
2022/03/08 10:02:50;;;;;;;6.93;6.33;;;6.90;65.00;;;7.53;33.36;98335.78;5210957;28;20190;-59
2022/03/08 10:05:26;;;;;;;7.13;6.53;;;7.20;64.70;;;7.55;32.55;98339.31;5209820;28;20201;-60
2022/03/08 10:08:10;;;;;;;7.50;6.80;;;7.30;63.20;;;7.46;32.24;98333.53;5204120;28;20616;-60
2022/03/08 10:10:47;;;;;;;6.83;6.23;;;7.10;62.90;;;7.69;32.70;98332.75;5203264;28;20202;-61
2022/03/08 10:13:31;;;;;;;6.90;6.40;;;7.40;62.90;;;7.61;32.76;98333.81;5195967;28;20206;-60
2022/03/08 10:16:15;;;;;;;7.20;6.60;;;7.30;62.80;;;7.48;33.05;98341.28;5197434;28;20196;-60
2022/03/08 10:18:52;;;;;;;6.47;5.87;;;7.20;62.60;;;7.64;32.70;98323.88;5207721;28;20228;-58
2022/03/08 10:21:54;;;;;;;7.10;6.40;;;7.20;63.40;;;7.76;31.75;98323.94;5205469;28;20198;-60
2022/03/08 10:24:31;;;;;;;7.10;6.40;;;7.40;61.40;;;7.74;31.73;98325.47;5206634;28;20570;-59
2022/03/08 10:27:08;;;;;;;6.60;6.00;;;7.40;61.30;;;7.97;32.18;98319.56;5206408;28;20210;-60
2022/03/08 10:29:41;;;;;;;6.80;6.30;;;7.60;61.50;;;8.03;31.80;98318.34;5206842;28;20228;-59
2022/03/08 10:32:18;;;;;;;6.67;6.07;;;7.50;61.50;;;8.17;30.72;98318.47;5206151;28;20201;-60
2022/03/08 10:34:55;;;;;;;6.37;5.87;;;7.90;59.70;;;8.09;31.45;98321.34;5207843;28;20218;-60
2022/03/08 10:37:36;;;;;;;6.70;6.20;;;7.90;60.40;;;7.75;30.89;98306.88;5205917;28;20190;-60
2022/03/08 10:40:12;;;;;;;7.77;7.07;;;7.50;59.40;;;7.58;30.66;98328.50;5207129;28;20194;-59